Terminal Aerodrome Forecast
Issued by NWS Buffalo, NY

Home | Current Version | Previous Version | Text Only | Print | Product List | Glossary On
Versions: 1 2 3 4 5 6 7 8 9 10 11 12 13 14 15 16 17 18 19 20 21 22 23
076
FTUS41 KBUF 180520
TAFROC
TAF
KROC 180520Z 1806/1906 21007KT 6SM BR VCSH SCT025 BKN050
     FM181100 22008KT P6SM BKN035
     FM181500 23012G18KT P6SM SCT050
     FM181800 25014G21KT P6SM SCT050
     FM190000 25010KT P6SM SCT050=

USA.gov is the U.S. government's official web portal to all federal, state and local government web resources and services.